Time;durP1;ratioP1;P1;durP2;ratioP2;P2;SDS_P1;SDS_P2;PMS_P1;PMS_P2;Temp;Humidity;BMP_temperature;BMP_pressure;BME280_temperature;BME280_humidity;BME280_pressure;Samples;Min_cycle;Max_cycle;Signal;HPM_P1;HPM_P2
2023/05/12 00:00:56;;;;;;;2.50;2.13;;;9.10;99.90;;;;;;2044414;28;20382;-68
2023/05/12 00:01:56;;;;;;;3.42;2.05;;;9.30;99.90;;;;;;2045418;28;20825;-68
2023/05/12 00:02:57;;;;;;;3.30;2.40;;;9.30;99.90;;;;;;2054716;28;20218;-68
2023/05/12 00:03:58;;;;;;;5.90;2.63;;;9.00;99.90;;;;;;2056820;28;20247;-68
2023/05/12 00:04:59;;;;;;;2.57;2.17;;;;;;;;;;2056515;28;20277;-67
2023/05/12 00:06:03;;;;;;;2.75;2.20;;;8.80;99.90;;;;;;2057139;28;20673;-68
2023/05/12 00:07:05;;;;;;;2.40;2.10;;;;;;;;;;2056759;28;20202;-68
2023/05/12 00:08:06;;;;;;;3.10;2.30;;;8.70;99.90;;;;;;2057140;28;20202;-68
2023/05/12 00:09:08;;;;;;;2.30;2.10;;;9.10;99.90;;;;;;2056874;28;20187;-68
2023/05/12 00:10:09;;;;;;;4.30;2.22;;;9.40;99.90;;;;;;2048550;28;20199;-68
2023/05/12 00:11:10;;;;;;;2.15;1.95;;;9.30;99.90;;;;;;2048192;28;20192;-67
2023/05/12 00:12:11;;;;;;;2.17;1.70;;;9.40;99.90;;;;;;2051955;28;20242;-68
2023/05/12 00:13:13;;;;;;;3.93;2.03;;;9.40;99.90;;;;;;2048321;29;20297;-68
2023/05/12 00:14:15;;;;;;;3.60;1.77;;;9.10;99.90;;;;;;2051895;28;20238;-68
2023/05/12 00:15:18;;;;;;;2.78;2.00;;;9.00;99.90;;;;;;2054987;28;20740;-66
2023/05/12 00:16:20;;;;;;;2.08;1.80;;;9.00;99.90;;;;;;2055992;28;20239;-68
2023/05/12 00:17:21;;;;;;;2.42;2.00;;;8.70;99.90;;;;;;2057226;28;20226;-68
2023/05/12 00:18:22;;;;;;;2.37;1.93;;;8.90;99.90;;;;;;2063980;28;20671;-69
2023/05/12 00:19:22;;;;;;;2.58;2.30;;;9.00;99.90;;;;;;2047137;28;20563;-68
2023/05/12 00:20:23;;;;;;;2.60;2.40;;;;;;;;;;2048138;28;20714;-68
2023/05/12 00:21:24;;;;;;;3.42;1.92;;;;;;;;;;2062607;28;20262;-68
2023/05/12 00:22:26;;;;;;;2.95;2.00;;;;;;;;;;2054199;28;20237;-68
2023/05/12 00:23:27;;;;;;;2.80;1.92;;;9.40;99.90;;;;;;2064452;28;20237;-68
2023/05/12 00:24:29;;;;;;;4.30;2.50;;;8.70;99.90;;;;;;2056734;28;20345;-68
2023/05/12 00:25:30;;;;;;;2.28;2.05;;;8.60;99.90;;;;;;2051119;28;20306;-68
2023/05/12 00:26:31;;;;;;;3.50;2.43;;;;;;;;;;2040070;29;20285;-68
2023/05/12 00:27:31;;;;;;;2.75;2.00;;;8.80;99.90;;;;;;2047299;28;20628;-68
2023/05/12 00:28:34;;;;;;;2.65;2.10;;;8.40;99.90;;;;;;2048713;28;20294;-68
2023/05/12 00:29:35;;;;;;;2.45;1.88;;;8.40;99.90;;;;;;2043930;28;20249;-68
2023/05/12 00:30:37;;;;;;;2.40;2.20;;;8.90;99.90;;;;;;2034594;29;20315;-68
2023/05/12 00:31:38;;;;;;;3.17;1.90;;;;;;;;;;2047849;28;20465;-67
2023/05/12 00:32:39;;;;;;;1.88;1.67;;;8.70;99.90;;;;;;2053898;28;20231;-71
2023/05/12 00:33:41;;;;;;;2.73;1.83;;;;;;;;;;2041569;28;20228;-68
2023/05/12 00:34:42;;;;;;;2.13;1.63;;;9.00;99.90;;;;;;2054954;28;20223;-68
2023/05/12 00:35:46;;;;;;;5.07;2.17;;;8.40;99.90;;;;;;2052877;28;20230;-68
2023/05/12 00:36:47;;;;;;;2.58;2.10;;;;;;;;;;2056821;28;20219;-68
2023/05/12 00:37:47;;;;;;;2.00;1.80;;;8.80;99.90;;;;;;2056033;28;20278;-68
2023/05/12 00:38:48;;;;;;;4.33;2.03;;;8.70;99.90;;;;;;2055612;28;20230;-69
2023/05/12 00:39:49;;;;;;;3.95;2.05;;;8.50;99.90;;;;;;2055236;28;20728;-68
2023/05/12 00:40:51;;;;;;;2.10;1.70;;;;;;;;;;2047864;28;20230;-68
2023/05/12 00:41:57;;;;;;;2.72;1.90;;;8.80;99.90;;;;;;2052341;28;20305;-71
2023/05/12 00:42:58;;;;;;;1.80;1.70;;;8.30;99.90;;;;;;2056740;28;20764;-68
2023/05/12 00:43:59;;;;;;;5.07;2.20;;;;;;;;;;2056502;28;20253;-68
2023/05/12 00:45:02;;;;;;;5.18;2.22;;;8.60;99.90;;;;;;2056472;28;20564;-68
2023/05/12 00:46:04;;;;;;;2.70;2.00;;;8.70;99.90;;;;;;2056433;28;20350;-68
2023/05/12 00:47:06;;;;;;;3.22;2.35;;;;;;;;;;2044732;28;20283;-68
2023/05/12 00:48:07;;;;;;;2.47;2.10;;;9.00;99.90;;;;;;2038497;29;20184;-68
2023/05/12 00:49:08;;;;;;;3.07;2.40;;;;;;;;;;2046788;28;20191;-68
2023/05/12 00:50:09;;;;;;;2.65;2.10;;;9.00;99.90;;;;;;2050366;28;20294;-68
2023/05/12 00:51:12;;;;;;;2.22;1.92;;;8.70;99.90;;;;;;2047018;28;20203;-68
2023/05/12 00:52:13;;;;;;;3.00;2.17;;;8.60;99.90;;;;;;2044559;28;20234;-68
2023/05/12 00:53:14;;;;;;;3.80;2.40;;;;;;;;;;2052217;28;20234;-68
2023/05/12 00:54:16;;;;;;;2.53;2.08;;;8.60;99.90;;;;;;2051274;28;20241;-68
2023/05/12 00:55:17;;;;;;;2.85;2.38;;;8.30;99.90;;;;;;2053401;28;20233;-68
2023/05/12 00:56:18;;;;;;;3.07;2.00;;;8.70;99.90;;;;;;2055794;28;20249;-68
2023/05/12 00:57:21;;;;;;;2.63;2.00;;;8.30;99.90;;;;;;2055901;28;20752;-68
2023/05/12 00:58:24;;;;;;;2.75;2.30;;;8.70;99.90;;;;;;2055607;28;20242;-68
2023/05/12 00:59:25;;;;;;;3.08;2.30;;;8.20;99.90;;;;;;2055281;28;20245;-68
2023/05/12 01:00:26;;;;;;;2.67;2.10;;;8.50;99.90;;;;;;2056263;28;20779;-68
2023/05/12 01:01:29;;;;;;;5.50;2.40;;;8.50;99.90;;;;;;2048059;28;20293;-68
2023/05/12 01:02:29;;;;;;;2.65;2.20;;;9.00;99.90;;;;;;2049435;28;20236;-68
2023/05/12 01:03:31;;;;;;;2.70;2.20;;;;;;;;;;2038918;29;20698;-68
2023/05/12 01:04:32;;;;;;;2.05;1.85;;;8.70;99.90;;;;;;2042076;29;20710;-68
2023/05/12 01:06:08;;;;;;;4.28;2.35;;;8.40;99.90;;;;;;2045470;28;20883;-68
2023/05/12 01:07:32;;;;;;;2.90;2.20;;;8.40;99.90;;;;;;2046705;28;20811;-68
2023/05/12 01:08:34;;;;;;;3.53;2.10;;;8.30;99.90;;;;;;2048022;28;20684;-68
2023/05/12 01:09:35;;;;;;;3.88;2.08;;;8.40;99.90;;;;;;2046349;28;20231;-68
2023/05/12 01:10:36;;;;;;;6.35;2.17;;;8.10;99.90;;;;;;2047813;28;20278;-68
2023/05/12 01:11:38;;;;;;;3.27;2.43;;;;;;;;;;2039428;29;20692;-68
2023/05/12 01:12:40;;;;;;;3.85;2.53;;;8.40;99.90;;;;;;2032089;29;20237;-68
2023/05/12 01:13:41;;;;;;;4.28;2.38;;;;;;;;;;2043134;28;20300;-68
2023/05/12 01:14:43;;;;;;;3.22;2.10;;;;;;;;;;2043934;28;20216;-68
2023/05/12 01:15:47;;;;;;;2.92;2.20;;;7.80;99.90;;;;;;2047235;28;20309;-68
2023/05/12 01:16:54;;;;;;;2.60;2.03;;;8.30;99.90;;;;;;2047256;28;20223;-68
2023/05/12 01:18:00;;;;;;;3.90;2.28;;;8.00;99.90;;;;;;2044141;28;20739;-68
2023/05/12 01:19:06;;;;;;;2.72;2.15;;;8.20;99.90;;;;;;2043694;28;20184;-68
2023/05/12 01:20:10;;;;;;;4.18;2.55;;;8.00;99.90;;;;;;2031025;29;20265;-68
2023/05/12 01:21:12;;;;;;;3.58;2.13;;;;;;;;;;2042263;28;20241;-67
2023/05/12 01:22:14;;;;;;;2.83;1.98;;;7.90;99.90;;;;;;2039467;28;20250;-68
2023/05/12 01:23:18;;;;;;;5.38;2.00;;;7.80;99.90;;;;;;2043250;28;20710;-69
2023/05/12 01:24:23;;;;;;;4.05;2.05;;;7.90;99.90;;;;;;2039863;28;20237;-67
2023/05/12 01:25:27;;;;;;;3.25;2.03;;;7.70;99.90;;;;;;2047115;28;20271;-68
2023/05/12 01:26:28;;;;;;;3.25;2.22;;;7.80;99.90;;;;;;2049217;28;20234;-68
2023/05/12 01:27:30;;;;;;;2.90;2.22;;;;;;;;;;2044073;28;20239;-68
2023/05/12 01:28:34;;;;;;;3.05;2.25;;;7.80;99.90;;;;;;2039365;29;20584;-68
2023/05/12 01:29:37;;;;;;;4.20;2.00;;;7.80;99.90;;;;;;2039611;29;20247;-68
2023/05/12 01:30:42;;;;;;;3.58;2.40;;;8.00;99.90;;;;;;2046480;28;20232;-68
2023/05/12 01:31:43;;;;;;;2.53;2.00;;;8.10;99.90;;;;;;2054551;28;20623;-68
2023/05/12 01:32:44;;;;;;;2.50;2.10;;;8.60;99.90;;;;;;2055366;28;20230;-68
2023/05/12 01:33:45;;;;;;;3.90;2.03;;;7.90;99.90;;;;;;2054818;28;20309;-68
2023/05/12 01:34:47;;;;;;;4.40;1.92;;;;;;;;;;2056153;28;20223;-68
2023/05/12 01:35:49;;;;;;;2.33;1.88;;;8.10;99.90;;;;;;2048112;28;20231;-68
2023/05/12 01:36:50;;;;;;;3.17;2.13;;;7.90;99.90;;;;;;2055423;28;21024;-68
2023/05/12 01:37:51;;;;;;;3.90;2.50;;;;;;;;;;2063384;28;20229;-67
2023/05/12 01:38:53;;;;;;;4.20;2.17;;;7.90;99.90;;;;;;2062232;28;20230;-70
2023/05/12 01:39:54;;;;;;;3.30;2.20;;;;;;;;;;2057819;28;20593;-68
2023/05/12 01:40:56;;;;;;;3.20;1.95;;;;;;;;;;2049150;28;20282;-69
2023/05/12 01:41:57;;;;;;;3.20;2.25;;;7.80;99.90;;;;;;2058375;28;20199;-68
2023/05/12 01:42:58;;;;;;;3.20;2.17;;;;;;;;;;2048208;28;20588;-68
2023/05/12 01:43:59;;;;;;;4.40;2.30;;;8.00;99.90;;;;;;2055805;28;20201;-68
2023/05/12 01:45:02;;;;;;;2.45;2.10;;;8.00;99.90;;;;;;2054902;28;20217;-68
2023/05/12 01:46:03;;;;;;;2.97;2.40;;;;;;;;;;2054038;28;20198;-68
2023/05/12 01:47:04;;;;;;;3.65;2.28;;;8.10;99.90;;;;;;2046088;28;20226;-68
2023/05/12 01:48:05;;;;;;;2.60;2.00;;;8.10;99.90;;;;;;2049479;28;20607;-69
2023/05/12 01:49:05;;;;;;;3.40;2.33;;;7.90;99.90;;;;;;2055559;28;20439;-68
2023/05/12 01:50:08;;;;;;;2.43;1.90;;;7.90;99.90;;;;;;2056074;28;20277;-68
2023/05/12 01:51:10;;;;;;;3.28;2.30;;;7.80;99.90;;;;;;2055662;28;20221;-68
2023/05/12 01:52:12;;;;;;;2.60;2.20;;;;;;;;;;2053424;28;20375;-68
2023/05/12 01:53:13;;;;;;;5.13;2.40;;;7.70;99.90;;;;;;2045361;28;20231;-68
2023/05/12 01:54:14;;;;;;;2.85;2.25;;;8.00;99.90;;;;;;2045292;28;20246;-69
2023/05/12 01:55:16;;;;;;;3.17;2.55;;;;;;;;;;2054940;28;20301;-69
2023/05/12 01:56:17;;;;;;;2.40;2.15;;;7.70;99.90;;;;;;2059418;28;20242;-68
2023/05/12 01:57:18;;;;;;;4.35;3.40;;;;;;;;;;2056329;28;20233;-68
2023/05/12 01:58:19;;;;;;;2.30;2.10;;;8.20;99.90;;;;;;2056047;28;20271;-68
2023/05/12 01:59:19;;;;;;;3.50;2.10;;;8.00;99.90;;;;;;2055385;28;20934;-69
2023/05/12 02:00:21;;;;;;;3.63;1.90;;;7.90;99.90;;;;;;2055170;28;20639;-68
2023/05/12 02:01:24;;;;;;;2.45;1.90;;;8.10;99.90;;;;;;2055946;28;20231;-68
2023/05/12 02:02:25;;;;;;;2.80;2.05;;;;;;;;;;2055466;28;21016;-69
2023/05/12 02:03:26;;;;;;;2.75;2.15;;;;;;;;;;2063562;28;20699;-68
2023/05/12 02:04:27;;;;;;;2.33;2.00;;;8.40;99.90;;;;;;2063943;28;20230;-69
2023/05/12 02:05:28;;;;;;;2.60;2.00;;;8.30;99.90;;;;;;2055744;28;20590;-69
2023/05/12 02:06:30;;;;;;;2.72;2.00;;;8.00;99.90;;;;;;2054875;28;20244;-69
2023/05/12 02:07:31;;;;;;;2.05;1.80;;;7.80;99.90;;;;;;2052046;28;20664;-69
2023/05/12 02:08:32;;;;;;;3.93;1.90;;;7.90;99.90;;;;;;2055599;28;20281;-69
2023/05/12 02:09:32;;;;;;;2.50;2.10;;;7.80;99.90;;;;;;2056212;28;20230;-69
2023/05/12 02:10:34;;;;;;;2.37;2.10;;;8.30;99.90;;;;;;2055668;28;20230;-69
2023/05/12 02:11:35;;;;;;;2.45;1.90;;;;;;;;;;2060940;28;20238;-68
2023/05/12 02:12:36;;;;;;;2.78;2.00;;;8.40;99.90;;;;;;2051683;28;20731;-68
2023/05/12 02:13:38;;;;;;;3.77;1.97;;;8.00;99.90;;;;;;2047657;28;20233;-68
2023/05/12 02:14:39;;;;;;;2.53;1.95;;;8.50;99.90;;;;;;2055708;28;20318;-68
2023/05/12 02:15:40;;;;;;;2.72;1.67;;;8.30;99.90;;;;;;2052439;28;20225;-69
2023/05/12 02:16:42;;;;;;;1.75;1.60;;;8.40;99.90;;;;;;2052361;28;20227;-69
2023/05/12 02:17:43;;;;;;;1.48;1.38;;;;;;;;;;2052245;28;20627;-69
2023/05/12 02:18:44;;;;;;;3.15;1.90;;;;;;;;;;2060293;28;20587;-69
2023/05/12 02:19:45;;;;;;;2.92;1.92;;;8.30;99.90;;;;;;2048703;28;20237;-69
2023/05/12 02:20:46;;;;;;;2.23;1.77;;;8.70;99.90;;;;;;2046256;28;20230;-68
2023/05/12 02:21:47;;;;;;;3.30;2.10;;;;;;;;;;2047921;28;20313;-69
2023/05/12 02:22:48;;;;;;;3.55;1.70;;;8.30;99.90;;;;;;2046548;28;20242;-69
2023/05/12 02:23:50;;;;;;;4.80;1.80;;;;;;;;;;2039304;29;20230;-68
2023/05/12 02:24:51;;;;;;;2.80;1.98;;;;;;;;;;2043877;28;20233;-69
2023/05/12 02:25:53;;;;;;;2.33;1.83;;;8.70;99.90;;;;;;2047161;28;20195;-68
2023/05/12 02:26:54;;;;;;;5.32;2.20;;;8.30;99.90;;;;;;2047610;28;20235;-69
2023/05/12 02:27:54;;;;;;;3.73;2.10;;;8.50;99.90;;;;;;2048223;28;20911;-68
2023/05/12 02:28:55;;;;;;;2.27;1.97;;;;;;;;;;2037888;28;20413;-68
2023/05/12 02:29:56;;;;;;;1.90;1.70;;;8.40;99.90;;;;;;2039699;29;20196;-68
2023/05/12 02:30:57;;;;;;;2.40;1.97;;;8.20;99.90;;;;;;2043630;28;20288;-68
2023/05/12 02:31:58;;;;;;;2.40;1.80;;;;;;;;;;2045772;28;20197;-68
2023/05/12 02:33:00;;;;;;;4.22;2.40;;;;;;;;;;2047758;28;20297;-69
2023/05/12 02:34:00;;;;;;;3.08;2.10;;;8.40;99.90;;;;;;2047020;28;20215;-68
2023/05/12 02:35:01;;;;;;;2.00;1.70;;;8.30;99.90;;;;;;2047447;28;20792;-68
2023/05/12 02:36:02;;;;;;;3.20;2.20;;;8.30;99.90;;;;;;2047127;28;20204;-68
2023/05/12 02:37:03;;;;;;;2.45;2.17;;;8.60;99.90;;;;;;2038988;29;20722;-68
2023/05/12 02:38:05;;;;;;;2.85;1.80;;;;;;;;;;2038298;29;20219;-68
2023/05/12 02:39:07;;;;;;;6.78;2.00;;;8.70;99.90;;;;;;2047365;28;20585;-68
2023/05/12 02:40:08;;;;;;;5.40;1.95;;;8.70;99.90;;;;;;2047275;28;20226;-68
2023/05/12 02:41:09;;;;;;;4.50;2.10;;;8.50;99.90;;;;;;2046747;28;20246;-68
2023/05/12 02:42:10;;;;;;;2.30;1.90;;;;;;;;;;2046281;28;20269;-67
2023/05/12 02:43:11;;;;;;;3.55;2.50;;;8.60;99.90;;;;;;2047304;28;20266;-68
2023/05/12 02:44:12;;;;;;;3.00;2.23;;;;;;;;;;2049959;28;20289;-68
2023/05/12 02:45:14;;;;;;;2.10;1.67;;;;;;;;;;2052273;28;20234;-68
2023/05/12 02:46:15;;;;;;;1.77;1.65;;;;;;;;;;2047711;28;20260;-67
2023/05/12 02:47:16;;;;;;;1.98;1.58;;;;;;;;;;2055072;28;20660;-68
2023/05/12 02:48:17;;;;;;;5.22;1.88;;;8.40;99.90;;;;;;2058451;28;20321;-67
2023/05/12 02:49:17;;;;;;;2.27;1.70;;;8.40;99.90;;;;;;2055474;28;20230;-68
2023/05/12 02:50:20;;;;;;;2.10;1.40;;;8.40;99.90;;;;;;2047963;28;20600;-68
2023/05/12 02:51:21;;;;;;;1.83;1.60;;;;;;;;;;2055613;28;20226;-67
2023/05/12 02:52:22;;;;;;;1.67;1.45;;;8.50;99.90;;;;;;2055046;28;20577;-68
2023/05/12 02:53:25;;;;;;;1.77;1.50;;;8.90;99.90;;;;;;2055112;28;20668;-68
2023/05/12 02:54:26;;;;;;;2.17;1.63;;;8.60;99.90;;;;;;2055644;28;20342;-68
2023/05/12 02:55:28;;;;;;;3.63;2.07;;;8.90;99.90;;;;;;2060326;28;20584;-68
2023/05/12 02:56:29;;;;;;;3.30;1.75;;;8.30;99.90;;;;;;2061712;28;20225;-71
2023/05/12 02:57:32;;;;;;;1.83;1.53;;;8.60;99.90;;;;;;2047259;28;20284;-68
2023/05/12 02:58:34;;;;;;;1.95;1.45;;;8.50;99.90;;;;;;2046796;28;20230;-68
2023/05/12 02:59:34;;;;;;;2.42;1.67;;;8.50;99.90;;;;;;2055053;28;20233;-71
2023/05/12 03:00:35;;;;;;;1.97;1.53;;;8.40;99.90;;;;;;2045950;28;20229;-68
2023/05/12 03:01:37;;;;;;;1.50;1.20;;;;;;;;;;2046934;28;20227;-68
2023/05/12 03:02:39;;;;;;;2.78;1.80;;;8.30;99.90;;;;;;2056788;28;20237;-68
2023/05/12 03:03:40;;;;;;;2.40;1.70;;;;;;;;;;2057601;28;20280;-69
2023/05/12 03:04:41;;;;;;;2.00;1.70;;;8.60;99.90;;;;;;2057196;28;20283;-68
2023/05/12 03:05:41;;;;;;;2.37;2.00;;;8.40;99.90;;;;;;2050195;28;20662;-68
2023/05/12 03:06:42;;;;;;;3.30;2.00;;;;;;;;;;2040801;29;20342;-67
2023/05/12 03:07:44;;;;;;;2.05;1.85;;;;;;;;;;2055799;28;20233;-68
2023/05/12 03:08:45;;;;;;;3.28;1.98;;;8.50;99.90;;;;;;2057189;28;20233;-68
2023/05/12 03:09:47;;;;;;;2.58;1.80;;;8.50;99.90;;;;;;2064191;28;20304;-67
2023/05/12 03:10:48;;;;;;;5.63;2.15;;;8.30;99.90;;;;;;2056522;28;20394;-68
2023/05/12 03:11:49;;;;;;;3.45;2.47;;;8.10;99.90;;;;;;2048657;28;20235;-68
2023/05/12 03:12:49;;;;;;;2.90;1.87;;;8.60;99.90;;;;;;2056951;28;20341;-68
2023/05/12 03:13:50;;;;;;;2.20;1.77;;;;;;;;;;2056243;28;20235;-68
2023/05/12 03:14:51;;;;;;;2.20;1.90;;;;;;;;;;2055343;28;20233;-71
2023/05/12 03:15:53;;;;;;;2.35;2.00;;;;;;;;;;2057066;28;20240;-68
2023/05/12 03:16:54;;;;;;;2.88;2.08;;;8.70;99.90;;;;;;2048485;28;20251;-68
2023/05/12 03:17:55;;;;;;;3.42;2.00;;;;;;;;;;2048447;28;20195;-68
2023/05/12 03:18:56;;;;;;;3.60;1.83;;;8.50;99.90;;;;;;2054336;28;20199;-68
2023/05/12 03:19:57;;;;;;;3.07;2.00;;;;;;;;;;2056844;28;20202;-68
2023/05/12 03:20:58;;;;;;;3.08;1.77;;;;;;;;;;2056761;28;20197;-68
2023/05/12 03:21:59;;;;;;;4.18;1.88;;;8.30;99.90;;;;;;2057038;28;20216;-68
2023/05/12 03:23:01;;;;;;;2.78;2.30;;;;;;;;;;2055253;28;20220;-68
2023/05/12 03:24:02;;;;;;;2.60;2.00;;;8.70;99.90;;;;;;2040937;29;20295;-68
2023/05/12 03:25:04;;;;;;;2.47;2.10;;;8.90;99.90;;;;;;2047095;28;20226;-68
2023/05/12 03:26:04;;;;;;;2.67;2.10;;;8.50;99.90;;;;;;2050247;28;20258;-69
2023/05/12 03:27:05;;;;;;;3.10;2.10;;;8.50;99.90;;;;;;2054609;28;20676;-68
2023/05/12 03:28:07;;;;;;;4.47;2.10;;;8.60;99.90;;;;;;2051097;28;20218;-68
2023/05/12 03:29:08;;;;;;;4.00;2.40;;;8.80;99.90;;;;;;2057546;28;20257;-68
2023/05/12 03:30:11;;;;;;;3.60;2.63;;;8.90;99.90;;;;;;2057132;28;20195;-68
2023/05/12 03:31:12;;;;;;;3.55;2.10;;;;;;;;;;2061230;28;20242;-68
2023/05/12 03:32:13;;;;;;;7.68;2.58;;;8.60;99.90;;;;;;2060427;28;20635;-68
2023/05/12 03:33:14;;;;;;;3.20;2.33;;;8.40;99.90;;;;;;2056121;28;20273;-68
2023/05/12 03:34:15;;;;;;;2.80;2.30;;;;;;;;;;2053053;28;20247;-68
2023/05/12 03:35:17;;;;;;;3.03;2.10;;;;;;;;;;2043471;29;20238;-68
2023/05/12 03:36:18;;;;;;;3.08;2.25;;;;;;;;;;2051809;28;20250;-67
2023/05/12 03:37:19;;;;;;;2.72;2.10;;;8.70;99.90;;;;;;2060358;28;20228;-69
2023/05/12 03:38:19;;;;;;;3.20;2.33;;;8.70;99.90;;;;;;2057080;28;20258;-68
2023/05/12 03:39:23;;;;;;;2.83;2.27;;;;;;;;;;2056813;28;20257;-69
2023/05/12 03:40:24;;;;;;;4.32;2.30;;;;;;;;;;2048862;28;20848;-68
2023/05/12 03:41:25;;;;;;;2.80;2.10;;;;;;;;;;2054452;28;20308;-68
2023/05/12 03:42:26;;;;;;;4.20;2.97;;;8.40;99.90;;;;;;2056671;28;20234;-69
2023/05/12 03:43:27;;;;;;;3.50;2.60;;;8.40;99.90;;;;;;2051171;28;20253;-68
2023/05/12 03:44:27;;;;;;;4.47;2.57;;;8.90;99.90;;;;;;2039635;29;20265;-68
2023/05/12 03:45:28;;;;;;;3.80;2.27;;;8.70;99.90;;;;;;2053335;28;20631;-68
2023/05/12 03:46:30;;;;;;;3.50;2.40;;;8.80;99.90;;;;;;2044527;28;20236;-68
2023/05/12 03:47:30;;;;;;;3.45;2.17;;;8.40;99.90;;;;;;2047876;28;20744;-68
2023/05/12 03:48:31;;;;;;;2.37;1.93;;;9.00;99.90;;;;;;2056284;28;20226;-68
2023/05/12 03:49:32;;;;;;;3.33;2.20;;;9.20;99.90;;;;;;2056584;28;20665;-68
2023/05/12 03:50:33;;;;;;;2.87;2.00;;;;;;;;;;2062263;28;20241;-68
2023/05/12 03:51:34;;;;;;;3.25;2.42;;;8.80;99.90;;;;;;2050806;28;20244;-68
2023/05/12 03:52:37;;;;;;;2.53;2.13;;;;;;;;;;2040814;28;20250;-69
2023/05/12 03:53:44;;;;;;;2.80;2.45;;;8.90;99.90;;;;;;2039702;29;20247;-68
2023/05/12 03:54:45;;;;;;;5.45;2.20;;;;;;;;;;2048757;28;20320;-68
2023/05/12 03:55:46;;;;;;;3.00;2.17;;;8.70;99.90;;;;;;2048111;28;20237;-68
2023/05/12 03:56:48;;;;;;;3.90;2.15;;;;;;;;;;2051460;28;20302;-68
2023/05/12 03:57:49;;;;;;;4.22;1.90;;;9.00;99.90;;;;;;2051224;28;20233;-68
2023/05/12 03:58:50;;;;;;;2.40;2.00;;;;;;;;;;2051543;28;20749;-68
2023/05/12 03:59:51;;;;;;;1.90;1.67;;;8.80;99.90;;;;;;2048593;28;20337;-68
2023/05/12 04:00:55;;;;;;;2.40;1.97;;;9.00;99.90;;;;;;2046493;28;20227;-70
2023/05/12 04:01:56;;;;;;;2.25;1.70;;;;;;;;;;2047018;28;20193;-68
2023/05/12 04:02:57;;;;;;;2.58;1.95;;;8.90;99.90;;;;;;2041140;29;20209;-68
2023/05/12 04:03:59;;;;;;;4.13;2.00;;;;;;;;;;2040243;28;20199;-68
2023/05/12 04:05:00;;;;;;;2.97;2.10;;;8.60;99.90;;;;;;2055926;28;20195;-68
2023/05/12 04:06:02;;;;;;;4.53;2.47;;;9.30;99.90;;;;;;2056093;28;20278;-69
2023/05/12 04:07:04;;;;;;;3.50;2.22;;;8.90;99.90;;;;;;2056109;28;20443;-68
2023/05/12 04:08:06;;;;;;;5.47;3.50;;;;;;;;;;2056270;28;20693;-68
2023/05/12 04:09:06;;;;;;;3.85;3.22;;;8.90;99.90;;;;;;2056078;28;20238;-68
2023/05/12 04:10:07;;;;;;;4.07;2.90;;;8.70;99.90;;;;;;2055685;28;20194;-68
2023/05/12 04:11:08;;;;;;;3.83;3.17;;;9.00;99.90;;;;;;2056892;28;20191;-68
2023/05/12 04:12:10;;;;;;;5.03;2.70;;;8.80;99.90;;;;;;2057089;28;20197;-68
2023/05/12 04:13:12;;;;;;;4.60;2.63;;;9.10;99.90;;;;;;2058414;28;20672;-68
2023/05/12 04:14:13;;;;;;;3.53;2.95;;;;;;;;;;2055000;28;20232;-68
2023/05/12 04:15:13;;;;;;;3.28;2.97;;;8.80;99.90;;;;;;2048315;29;20302;-68
2023/05/12 04:16:15;;;;;;;3.30;3.00;;;8.60;99.90;;;;;;2049722;29;20271;-68
2023/05/12 04:17:17;;;;;;;5.30;2.80;;;8.60;99.90;;;;;;2050219;29;20841;-68
2023/05/12 04:18:18;;;;;;;4.00;2.50;;;8.70;99.90;;;;;;2051135;28;20324;-68
2023/05/12 04:19:19;;;;;;;3.47;2.60;;;;;;;;;;2057356;28;20241;-68
2023/05/12 04:20:21;;;;;;;3.22;2.83;;;;;;;;;;2056258;28;20230;-68
2023/05/12 04:21:21;;;;;;;3.70;2.90;;;8.90;99.90;;;;;;2048460;28;20222;-68
2023/05/12 04:22:22;;;;;;;3.37;2.97;;;8.80;99.90;;;;;;2059443;28;20250;-68
2023/05/12 04:23:24;;;;;;;3.83;2.63;;;8.20;99.90;;;;;;2055116;28;20317;-68
2023/05/12 04:24:26;;;;;;;4.18;3.17;;;;;;;;;;2055946;28;20242;-68
2023/05/12 04:25:26;;;;;;;3.72;3.13;;;9.00;99.90;;;;;;2051555;28;20230;-69
2023/05/12 04:26:28;;;;;;;3.80;3.07;;;;;;;;;;2044997;28;20235;-69
2023/05/12 04:27:29;;;;;;;4.55;3.00;;;;;;;;;;2048158;28;20235;-68
2023/05/12 04:28:30;;;;;;;3.30;2.92;;;;;;;;;;2053897;28;20236;-68
2023/05/12 04:29:31;;;;;;;5.65;3.22;;;9.00;99.90;;;;;;2055208;28;20227;-68
2023/05/12 04:30:32;;;;;;;6.00;3.20;;;;;;;;;;2055247;28;20234;-68
2023/05/12 04:31:33;;;;;;;6.57;3.55;;;9.10;99.90;;;;;;2056788;28;20222;-68
2023/05/12 04:32:35;;;;;;;4.67;3.57;;;;;;;;;;2050836;28;20247;-68
2023/05/12 04:33:36;;;;;;;6.78;3.47;;;9.10;99.90;;;;;;2048542;28;20318;-68
2023/05/12 04:34:37;;;;;;;4.57;3.53;;;;;;;;;;2048740;28;20235;-68
2023/05/12 04:35:38;;;;;;;6.63;4.00;;;;;;;;;;2055146;28;20277;-68
2023/05/12 04:36:39;;;;;;;5.43;3.90;;;;;;;;;;2057246;28;20226;-67
2023/05/12 04:37:40;;;;;;;5.72;3.85;;;9.20;99.90;;;;;;2059557;28;20245;-68
2023/05/12 04:38:41;;;;;;;6.07;3.70;;;9.20;99.90;;;;;;2051635;28;20717;-68
2023/05/12 04:39:42;;;;;;;5.67;3.87;;;9.10;99.90;;;;;;2056189;28;20219;-68
2023/05/12 04:40:43;;;;;;;7.63;4.38;;;;;;;;;;2056287;28;20224;-68
2023/05/12 04:41:46;;;;;;;6.38;3.78;;;9.40;99.90;;;;;;2055555;28;20731;-68
2023/05/12 04:42:48;;;;;;;6.55;4.40;;;;;;;;;;2048921;28;20231;-68
2023/05/12 04:43:48;;;;;;;6.07;4.35;;;9.60;99.90;;;;;;2056244;28;20748;-68
2023/05/12 04:44:49;;;;;;;6.77;4.10;;;9.20;99.90;;;;;;2056605;28;20235;-68
2023/05/12 04:45:52;;;;;;;6.07;4.10;;;9.40;99.90;;;;;;2056855;28;20230;-70
2023/05/12 04:46:55;;;;;;;7.07;4.32;;;9.40;99.90;;;;;;2055712;28;20239;-69
2023/05/12 04:47:55;;;;;;;7.03;3.95;;;9.40;99.90;;;;;;2047500;28;20608;-67
2023/05/12 04:48:56;;;;;;;11.37;5.67;;;;;;;;;;2061168;28;20201;-69
2023/05/12 04:49:57;;;;;;;7.00;5.00;;;9.50;99.90;;;;;;2042904;28;20670;-68
2023/05/12 04:51:01;;;;;;;10.93;5.10;;;9.30;99.90;;;;;;2054789;28;20190;-68
2023/05/12 04:52:04;;;;;;;8.35;5.15;;;9.00;99.90;;;;;;2060620;28;20181;-68
2023/05/12 04:53:04;;;;;;;11.02;5.25;;;9.50;99.90;;;;;;2054737;28;20689;-68
2023/05/12 04:54:06;;;;;;;10.17;5.20;;;;;;;;;;2056085;28;20234;-68
2023/05/12 04:55:08;;;;;;;7.38;4.72;;;9.20;99.90;;;;;;2056629;28;20194;-68
2023/05/12 04:56:09;;;;;;;5.63;4.13;;;9.20;99.90;;;;;;2053324;28;20210;-68
2023/05/12 04:57:10;;;;;;;8.67;4.33;;;;;;;;;;2047660;29;20812;-68
2023/05/12 04:58:14;;;;;;;6.22;4.03;;;9.30;99.90;;;;;;2055441;28;20723;-68
2023/05/12 04:59:16;;;;;;;6.05;3.53;;;;;;;;;;2053547;28;20301;-68
2023/05/12 05:00:17;;;;;;;6.00;3.90;;;;;;;;;;2051850;28;20238;-67
2023/05/12 05:01:18;;;;;;;5.32;3.70;;;9.80;99.90;;;;;;2052073;28;20306;-68
2023/05/12 05:02:19;;;;;;;7.13;3.70;;;;;;;;;;2049390;28;20737;-68
2023/05/12 05:03:21;;;;;;;6.80;3.97;;;;;;;;;;2046399;28;20263;-68
2023/05/12 05:04:21;;;;;;;7.88;4.95;;;10.10;99.90;;;;;;2051890;28;20241;-67
2023/05/12 05:05:22;;;;;;;7.27;3.93;;;9.80;99.90;;;;;;2055728;28;20242;-68
2023/05/12 05:06:23;;;;;;;6.57;3.87;;;9.80;99.90;;;;;;2052158;28;20250;-68
2023/05/12 05:07:24;;;;;;;6.43;3.70;;;10.10;99.90;;;;;;2047537;28;20269;-72
2023/05/12 05:08:24;;;;;;;8.53;4.40;;;9.70;99.90;;;;;;2054649;28;20979;-68
2023/05/12 05:09:26;;;;;;;6.57;4.30;;;;;;;;;;2055590;28;20235;-68
2023/05/12 05:10:27;;;;;;;8.40;4.00;;;10.10;99.90;;;;;;2056071;28;20812;-68
2023/05/12 05:11:28;;;;;;;6.40;3.97;;;9.90;99.90;;;;;;2056022;28;20784;-68
2023/05/12 05:12:29;;;;;;;7.20;4.33;;;9.60;99.90;;;;;;2050900;28;20235;-68
2023/05/12 05:13:30;;;;;;;9.03;5.33;;;9.90;99.90;;;;;;2055700;28;20685;-68
2023/05/12 05:14:30;;;;;;;10.27;4.67;;;9.40;99.90;;;;;;2055374;28;20227;-68
2023/05/12 05:15:33;;;;;;;12.20;5.20;;;;;;;;;;2044523;28;20241;-69
2023/05/12 05:16:36;;;;;;;7.38;4.40;;;;;;;;;;2047794;28;20734;-68
2023/05/12 05:17:37;;;;;;;7.72;4.80;;;;;;;;;;2048879;28;20262;-68
2023/05/12 05:18:40;;;;;;;9.60;4.63;;;10.40;99.90;;;;;;2047515;28;20279;-68
2023/05/12 05:19:41;;;;;;;8.32;4.45;;;9.80;99.90;;;;;;2031379;29;20220;-69
2023/05/12 05:20:42;;;;;;;6.23;4.20;;;10.20;99.90;;;;;;2039893;29;20228;-68
2023/05/12 05:21:43;;;;;;;7.40;4.93;;;10.10;99.90;;;;;;2047503;28;20228;-68
2023/05/12 05:22:44;;;;;;;6.80;5.03;;;9.70;99.90;;;;;;2044135;28;20255;-68
2023/05/12 05:23:44;;;;;;;8.50;4.57;;;10.20;99.90;;;;;;2048455;28;20285;-68
2023/05/12 05:24:46;;;;;;;5.73;3.83;;;10.30;99.90;;;;;;2045437;28;20228;-68
2023/05/12 05:25:47;;;;;;;6.00;4.20;;;;;;;;;;2057009;28;20653;-68
2023/05/12 05:26:48;;;;;;;9.05;4.68;;;10.00;99.90;;;;;;2045900;28;20729;-68
2023/05/12 05:27:49;;;;;;;7.30;4.43;;;9.70;99.90;;;;;;2048502;28;20722;-68
2023/05/12 05:28:53;;;;;;;7.60;4.97;;;;;;;;;;2047142;28;20318;-67
2023/05/12 05:29:55;;;;;;;7.85;4.38;;;;;;;;;;2038228;29;20228;-68
2023/05/12 05:30:55;;;;;;;6.30;4.28;;;9.60;99.90;;;;;;2038847;29;20196;-68
2023/05/12 05:31:58;;;;;;;8.67;4.20;;;;;;;;;;2050671;28;20261;-68
2023/05/12 05:32:59;;;;;;;9.32;4.65;;;10.00;99.90;;;;;;2046037;28;20212;-68
2023/05/12 05:34:00;;;;;;;7.53;4.63;;;9.40;99.90;;;;;;2046929;28;20305;-67
2023/05/12 05:35:01;;;;;;;7.80;5.03;;;9.70;99.90;;;;;;2048224;28;20449;-68
2023/05/12 05:36:02;;;;;;;6.60;4.85;;;;;;;;;;2049164;28;20299;-68
2023/05/12 05:37:04;;;;;;;7.55;4.72;;;;;;;;;;2052961;28;20657;-67
2023/05/12 05:38:05;;;;;;;10.15;5.35;;;;;;;;;;2046678;28;20258;-68